Time;durP1;ratioP1;P1;durP2;ratioP2;P2;SDS_P1;SDS_P2;PMS_P1;PMS_P2;Temp;Humidity;BMP_temperature;BMP_pressure;BME280_temperature;BME280_humidity;BME280_pressure;Samples;Min_cycle;Max_cycle;Signal;HPM_P1;HPM_P2
2023/04/22 00:01:43;;;;;;;36.45;15.75;;;10.30;99.90;;;;;;5050194;28;20025;-74
2023/04/22 00:04:08;;;;;;;26.42;16.52;;;10.30;99.90;;;;;;5050552;28;20029;-74
2023/04/22 00:06:35;;;;;;;23.83;13.63;;;10.30;99.90;;;;;;5050394;28;20021;-73
2023/04/22 00:09:00;;;;;;;29.67;16.48;;;10.30;99.90;;;;;;5050054;28;20032;-73
2023/04/22 00:11:27;;;;;;;33.65;16.98;;;10.20;99.90;;;;;;5050236;28;20021;-72
2023/04/22 00:13:52;;;;;;;25.48;16.95;;;10.30;99.90;;;;;;5050189;28;20458;-72
2023/04/22 00:16:18;;;;;;;29.15;16.75;;;10.30;99.90;;;;;;5050456;28;20103;-72
2023/04/22 00:18:44;;;;;;;31.30;16.73;;;10.30;99.90;;;;;;5050137;28;20456;-73
2023/04/22 00:21:10;;;;;;;32.20;16.30;;;10.30;99.90;;;;;;5050637;28;20021;-73
2023/04/22 00:23:36;;;;;;;30.02;15.98;;;10.30;99.90;;;;;;5053541;28;20045;-73
2023/04/22 00:26:02;;;;;;;28.30;15.38;;;10.30;99.90;;;;;;5054027;28;20487;-73
2023/04/22 00:28:28;;;;;;;35.13;13.50;;;10.30;99.90;;;;;;5054350;28;20024;-73
2023/04/22 00:30:53;;;;;;;30.40;14.65;;;10.20;99.90;;;;;;5052911;28;20365;-73
2023/04/22 00:33:19;;;;;;;25.55;12.18;;;10.20;99.90;;;;;;5054414;28;20359;-73
2023/04/22 00:35:48;;;;;;;32.55;14.25;;;10.20;99.90;;;;;;5052419;28;20119;-73
2023/04/22 00:38:14;;;;;;;28.27;12.35;;;10.10;99.90;;;;;;5054788;28;20021;-73
2023/04/22 00:40:39;;;;;;;24.35;12.70;;;10.20;99.90;;;;;;5054016;28;20044;-74
2023/04/22 00:43:07;;;;;;;29.38;12.63;;;10.20;99.90;;;;;;5054274;28;20405;-74
2023/04/22 00:45:35;;;;;;;25.98;11.82;;;10.20;99.90;;;;;;5053936;28;20025;-73
2023/04/22 00:48:01;;;;;;;25.02;12.57;;;10.20;99.90;;;;;;5053595;28;20469;-74
2023/04/22 00:50:27;;;;;;;24.35;13.30;;;10.10;99.90;;;;;;5054050;28;20059;-73
2023/04/22 00:52:53;;;;;;;22.00;12.70;;;10.10;99.90;;;;;;5053490;28;20516;-73
2023/04/22 00:55:19;;;;;;;31.33;14.00;;;10.10;99.90;;;;;;5053880;28;20484;-73
2023/04/22 00:57:46;;;;;;;23.38;14.20;;;10.10;99.90;;;;;;5053132;28;20017;-74
2023/04/22 01:00:12;;;;;;;30.75;13.93;;;10.10;99.90;;;;;;5053480;28;20024;-73
2023/04/22 01:02:38;;;;;;;22.42;12.73;;;10.10;99.90;;;;;;5053488;28;20020;-73
2023/04/22 01:05:05;;;;;;;28.65;14.45;;;10.10;99.90;;;;;;5052869;28;20319;-72
2023/04/22 01:07:30;;;;;;;23.63;13.10;;;10.10;99.90;;;;;;5053662;28;20021;-73
2023/04/22 01:09:56;;;;;;;26.10;13.25;;;10.10;99.90;;;;;;5053000;28;20035;-73
2023/04/22 01:12:22;;;;;;;29.33;15.82;;;10.10;99.90;;;;;;5052917;28;20023;-74
2023/04/22 01:14:48;;;;;;;25.58;14.50;;;10.10;99.90;;;;;;5052970;28;20029;-74
2023/04/22 01:17:15;;;;;;;26.73;14.93;;;10.10;99.90;;;;;;5053424;28;20021;-74
2023/04/22 01:19:42;;;;;;;28.75;15.25;;;10.10;99.90;;;;;;5053193;28;20052;-76
2023/04/22 01:22:10;;;;;;;30.25;15.93;;;10.10;99.90;;;;;;5053123;28;20082;-73
2023/04/22 01:24:36;;;;;;;25.65;15.45;;;10.10;99.90;;;;;;5053334;28;20095;-74
2023/04/22 01:27:02;;;;;;;23.77;15.15;;;10.10;99.90;;;;;;5052498;28;20084;-72
2023/04/22 01:29:27;;;;;;;26.83;15.32;;;10.10;99.90;;;;;;5053029;28;20090;-74
2023/04/22 01:31:56;;;;;;;30.17;16.10;;;10.10;99.90;;;;;;5052665;28;20013;-72
2023/04/22 01:34:22;;;;;;;27.38;15.68;;;10.10;99.90;;;;;;5052212;28;20036;-73
2023/04/22 01:36:48;;;;;;;32.33;15.60;;;10.00;99.90;;;;;;5052272;28;20450;-73
2023/04/22 01:39:14;;;;;;;32.58;17.38;;;10.00;99.90;;;;;;5052890;28;20029;-73
2023/04/22 01:41:40;;;;;;;26.58;16.17;;;10.00;99.90;;;;;;5051567;28;20029;-73
2023/04/22 01:44:06;;;;;;;30.27;16.80;;;10.00;99.90;;;;;;5052463;28;20170;-74
2023/04/22 01:46:32;;;;;;;25.40;17.38;;;10.00;99.90;;;;;;5052697;28;20104;-73
2023/04/22 01:48:58;;;;;;;27.25;17.27;;;10.00;99.90;;;;;;5052304;28;20021;-73
2023/04/22 01:51:24;;;;;;;28.30;17.33;;;9.90;99.90;;;;;;5052511;28;20029;-74
2023/04/22 01:53:50;;;;;;;30.73;17.58;;;9.90;99.90;;;;;;5052201;28;20028;-74
2023/04/22 01:56:16;;;;;;;30.55;17.83;;;9.90;99.90;;;;;;5052689;28;20021;-73
2023/04/22 01:58:43;;;;;;;30.85;17.33;;;10.00;99.90;;;;;;5052570;28;20017;-73
2023/04/22 02:01:10;;;;;;;30.70;17.30;;;9.90;99.90;;;;;;5052234;28;20112;-72
2023/04/22 02:03:36;;;;;;;31.35;18.20;;;9.90;99.90;;;;;;5052411;28;20028;-73
2023/04/22 02:06:02;;;;;;;29.65;18.30;;;9.90;99.90;;;;;;5052026;28;20028;-73
2023/04/22 02:08:28;;;;;;;32.05;17.35;;;10.00;99.90;;;;;;5052461;28;20365;-73
2023/04/22 02:10:53;;;;;;;34.40;18.05;;;10.00;99.90;;;;;;5052203;28;20469;-73
2023/04/22 02:13:19;;;;;;;29.35;16.85;;;10.00;99.90;;;;;;5052094;28;20077;-72
2023/04/22 02:15:45;;;;;;;37.05;19.25;;;10.00;99.90;;;;;;5051779;28;20033;-74
2023/04/22 02:18:11;;;;;;;33.00;18.15;;;10.00;99.90;;;;;;5052048;28;20025;-74
2023/04/22 02:20:37;;;;;;;29.33;17.45;;;10.00;99.90;;;;;;5052408;28;20052;-74
2023/04/22 02:23:04;;;;;;;30.80;17.98;;;10.00;99.90;;;;;;5051174;28;20462;-73
2023/04/22 02:25:30;;;;;;;32.25;18.33;;;10.00;99.90;;;;;;5052047;28;20040;-74
2023/04/22 02:27:56;;;;;;;28.70;17.75;;;9.90;99.90;;;;;;5051442;28;20059;-73
2023/04/22 02:30:22;;;;;;;31.20;18.75;;;9.90;99.90;;;;;;5052661;28;20099;-73
2023/04/22 02:32:48;;;;;;;36.25;18.75;;;9.90;99.90;;;;;;5051624;28;20028;-74
2023/04/22 02:35:13;;;;;;;30.98;18.40;;;10.00;99.90;;;;;;5052209;28;20072;-74
2023/04/22 02:37:39;;;;;;;30.17;18.15;;;9.90;99.90;;;;;;5052287;28;20424;-74
2023/04/22 02:40:06;;;;;;;27.50;17.55;;;9.90;99.90;;;;;;5051650;28;20059;-74
2023/04/22 02:42:32;;;;;;;30.27;19.33;;;9.90;99.90;;;;;;5052251;28;20362;-74
2023/04/22 02:44:58;;;;;;;28.13;17.63;;;9.90;99.90;;;;;;5050882;28;20124;-73
2023/04/22 02:47:24;;;;;;;33.80;17.88;;;9.80;99.90;;;;;;5051460;28;20486;-73
2023/04/22 02:49:49;;;;;;;27.02;17.60;;;9.80;99.90;;;;;;5050887;28;20422;-73
2023/04/22 02:52:15;;;;;;;33.50;18.52;;;9.80;99.90;;;;;;5051582;28;20017;-73
2023/04/22 02:54:41;;;;;;;31.25;18.33;;;9.80;99.90;;;;;;5051473;28;20434;-73
2023/04/22 02:57:07;;;;;;;31.17;17.98;;;9.70;99.90;;;;;;5050898;28;20286;-73
2023/04/22 02:59:35;;;;;;;29.90;17.73;;;9.80;99.90;;;;;;5051586;28;20111;-75
2023/04/22 03:02:00;;;;;;;31.75;17.70;;;9.80;99.90;;;;;;5050959;28;20029;-74
2023/04/22 03:04:26;;;;;;;33.75;19.05;;;9.70;99.90;;;;;;5051319;28;20350;-72
2023/04/22 03:06:52;;;;;;;32.00;18.23;;;9.70;99.90;;;;;;5051043;28;20024;-72
2023/04/22 03:09:17;;;;;;;29.55;16.58;;;9.80;99.90;;;;;;5051244;28;20036;-72
2023/04/22 03:11:43;;;;;;;29.13;16.92;;;9.70;99.90;;;;;;5051253;28;20025;-74
2023/04/22 03:14:09;;;;;;;34.83;17.60;;;9.70;99.90;;;;;;5050798;28;20199;-74
2023/04/22 03:16:35;;;;;;;33.67;17.63;;;9.70;99.90;;;;;;5051160;28;20044;-73
2023/04/22 03:19:01;;;;;;;30.50;18.98;;;9.70;99.90;;;;;;5049426;28;20025;-73
2023/04/22 03:21:27;;;;;;;33.38;18.23;;;9.70;99.90;;;;;;5051408;28;20106;-73
2023/04/22 03:23:53;;;;;;;33.72;18.80;;;9.70;99.90;;;;;;5050499;28;20102;-74
2023/04/22 03:26:19;;;;;;;32.83;18.88;;;9.70;99.90;;;;;;5050782;28;20029;-73
2023/04/22 03:28:44;;;;;;;26.33;17.10;;;9.80;99.90;;;;;;5050551;28;20383;-74
2023/04/22 03:31:10;;;;;;;29.15;17.83;;;9.70;99.90;;;;;;5050635;28;20047;-74
2023/04/22 03:33:36;;;;;;;29.45;17.42;;;9.70;99.90;;;;;;5050607;28;20083;-72
2023/04/22 03:36:02;;;;;;;27.20;18.73;;;9.80;99.90;;;;;;5050553;28;20029;-72
2023/04/22 03:38:27;;;;;;;29.23;19.00;;;9.70;99.90;;;;;;5050887;28;20048;-73
2023/04/22 03:40:53;;;;;;;25.92;17.95;;;9.70;99.90;;;;;;5050371;28;20021;-73
2023/04/22 03:43:19;;;;;;;29.45;18.05;;;9.80;99.90;;;;;;5050472;28;20127;-72
2023/04/22 03:45:44;;;;;;;25.35;17.35;;;9.80;99.90;;;;;;5051198;28;20032;-73
2023/04/22 03:48:10;;;;;;;28.35;17.55;;;9.70;99.90;;;;;;5050235;28;20055;-73
2023/04/22 03:50:36;;;;;;;27.52;16.88;;;9.70;99.90;;;;;;5050700;28;20523;-73
2023/04/22 03:53:02;;;;;;;26.27;15.82;;;9.70;99.90;;;;;;5050269;28;20029;-73
2023/04/22 03:55:27;;;;;;;23.77;15.77;;;9.60;99.90;;;;;;5050905;28;20437;-73
2023/04/22 03:57:53;;;;;;;24.98;15.52;;;9.60;99.90;;;;;;5053983;28;20025;-74
2023/04/22 04:00:19;;;;;;;23.20;15.50;;;9.60;99.90;;;;;;5054794;28;20028;-73
2023/04/22 04:02:45;;;;;;;25.50;16.83;;;9.70;99.90;;;;;;5054634;28;20021;-73
2023/04/22 04:05:10;;;;;;;28.33;16.00;;;9.70;99.90;;;;;;5053807;28;20067;-73
2023/04/22 04:07:36;;;;;;;34.85;17.15;;;9.70;99.90;;;;;;5054622;28;20021;-74
2023/04/22 04:10:03;;;;;;;28.92;15.45;;;9.60;99.90;;;;;;5053741;28;20041;-74
2023/04/22 04:12:28;;;;;;;26.35;15.80;;;9.70;99.90;;;;;;5054265;28;20374;-73
2023/04/22 04:14:54;;;;;;;28.35;16.77;;;9.60;99.90;;;;;;5053887;28;20047;-74
2023/04/22 04:17:24;;;;;;;31.77;16.15;;;9.60;99.90;;;;;;5054356;28;20017;-73
2023/04/22 04:19:52;;;;;;;26.50;16.80;;;9.60;99.90;;;;;;5054184;28;20495;-73
2023/04/22 04:22:19;;;;;;;28.23;16.30;;;9.60;99.90;;;;;;5053915;28;20052;-73
2023/04/22 04:24:44;;;;;;;30.08;16.67;;;9.60;99.90;;;;;;5054233;28;20033;-73
2023/04/22 04:27:10;;;;;;;29.42;16.27;;;9.60;99.90;;;;;;5054140;28;20029;-73
2023/04/22 04:29:36;;;;;;;28.27;16.42;;;9.60;99.90;;;;;;5054153;28;20135;-73
2023/04/22 04:32:03;;;;;;;28.33;16.65;;;9.60;99.90;;;;;;5053696;28;20053;-73
2023/04/22 04:34:29;;;;;;;28.67;15.70;;;9.60;99.90;;;;;;5054065;28;20029;-73
2023/04/22 04:36:55;;;;;;;32.17;17.73;;;9.60;99.90;;;;;;5053608;28;20044;-73
2023/04/22 04:39:21;;;;;;;32.25;17.15;;;9.60;99.90;;;;;;5054181;28;20029;-73
2023/04/22 04:41:47;;;;;;;34.17;18.73;;;9.60;99.90;;;;;;5054377;28;20035;-73
2023/04/22 04:44:14;;;;;;;35.15;17.88;;;9.60;99.90;;;;;;5053265;28;20703;-73
2023/04/22 04:46:40;;;;;;;36.45;19.88;;;9.50;99.90;;;;;;5053896;28;20037;-73
2023/04/22 04:49:08;;;;;;;31.58;18.58;;;9.60;99.90;;;;;;5053525;28;20032;-73
2023/04/22 04:51:34;;;;;;;32.40;18.90;;;9.60;99.90;;;;;;5053783;28;20042;-72
2023/04/22 04:54:00;;;;;;;32.50;18.50;;;9.50;99.90;;;;;;5053169;28;20082;-74
2023/04/22 04:56:25;;;;;;;32.13;18.15;;;9.50;99.90;;;;;;5053309;28;20463;-74
2023/04/22 04:58:51;;;;;;;39.33;18.77;;;9.50;99.90;;;;;;5053484;28;20116;-74
2023/04/22 05:01:17;;;;;;;32.22;19.17;;;9.50;99.90;;;;;;5052872;28;20027;-73
2023/04/22 05:03:43;;;;;;;31.77;17.88;;;9.50;99.90;;;;;;5053155;28;20051;-73
2023/04/22 05:06:09;;;;;;;37.25;18.52;;;9.50;99.90;;;;;;5052748;28;20017;-73
2023/04/22 05:08:35;;;;;;;34.88;18.27;;;9.50;99.90;;;;;;5052495;28;20025;-73
2023/04/22 05:11:00;;;;;;;32.53;16.75;;;9.40;99.90;;;;;;5052844;28;20021;-73
2023/04/22 05:13:27;;;;;;;33.38;18.45;;;9.40;99.90;;;;;;5052945;28;20025;-73
2023/04/22 05:15:52;;;;;;;37.38;16.38;;;9.40;99.90;;;;;;5053307;28;20059;-74
2023/04/22 05:18:18;;;;;;;30.77;17.70;;;9.40;99.90;;;;;;5052263;28;20021;-73
2023/04/22 05:20:44;;;;;;;36.30;18.10;;;9.40;99.90;;;;;;5052988;28;20036;-73
2023/04/22 05:23:09;;;;;;;28.65;17.02;;;9.40;99.90;;;;;;5052627;28;20126;-74
2023/04/22 05:25:35;;;;;;;34.03;18.88;;;9.40;99.90;;;;;;5052820;28;20033;-73
2023/04/22 05:28:01;;;;;;;35.55;17.63;;;9.40;99.90;;;;;;5052523;28;20021;-73
2023/04/22 05:30:26;;;;;;;29.95;17.52;;;9.40;99.90;;;;;;5053213;28;20079;-74
2023/04/22 05:32:52;;;;;;;28.17;16.13;;;9.40;99.90;;;;;;5052727;28;20171;-73
2023/04/22 05:35:18;;;;;;;27.55;16.30;;;9.40;99.90;;;;;;5052451;28;20119;-74
2023/04/22 05:37:43;;;;;;;26.95;15.25;;;9.50;99.90;;;;;;5052816;28;20028;-74
2023/04/22 05:40:09;;;;;;;26.25;15.70;;;9.40;99.90;;;;;;5052368;28;20326;-74
2023/04/22 05:42:35;;;;;;;29.85;15.18;;;9.40;99.90;;;;;;5052946;28;20021;-73
2023/04/22 05:45:01;;;;;;;29.27;15.52;;;9.40;99.90;;;;;;5051962;28;20120;-74
2023/04/22 05:47:27;;;;;;;27.75;14.40;;;9.40;99.90;;;;;;5052671;28;20108;-73
2023/04/22 05:49:52;;;;;;;29.40;15.25;;;9.50;99.90;;;;;;5052630;28;20413;-73
2023/04/22 05:52:18;;;;;;;27.30;14.70;;;9.50;99.90;;;;;;5052072;28;20025;-73
2023/04/22 05:54:44;;;;;;;28.85;14.88;;;9.40;99.90;;;;;;5052363;28;20032;-74
2023/04/22 05:57:10;;;;;;;26.73;14.10;;;9.40;99.90;;;;;;5052126;28;20102;-74
2023/04/22 05:59:35;;;;;;;27.52;14.43;;;9.40;99.90;;;;;;5052398;28;20021;-72
2023/04/22 06:02:01;;;;;;;24.08;14.75;;;9.40;99.90;;;;;;5051713;28;20481;-73
2023/04/22 06:04:27;;;;;;;27.33;14.98;;;9.50;99.90;;;;;;5052351;28;20048;-73
2023/04/22 06:06:53;;;;;;;24.92;14.80;;;9.50;99.90;;;;;;5052349;28;20397;-74
2023/04/22 06:09:20;;;;;;;30.88;14.35;;;9.60;99.90;;;;;;5051926;28;20544;-73
2023/04/22 06:11:46;;;;;;;25.75;14.27;;;9.60;99.90;;;;;;5051240;28;20382;-72
2023/04/22 06:14:12;;;;;;;25.30;14.30;;;9.60;99.90;;;;;;5051818;28;20099;-73
2023/04/22 06:16:38;;;;;;;33.60;14.88;;;9.60;99.90;;;;;;5052172;28;20035;-73
2023/04/22 06:19:05;;;;;;;25.20;14.70;;;9.60;99.90;;;;;;5051733;28;20118;-73
2023/04/22 06:21:32;;;;;;;26.85;14.05;;;9.60;99.90;;;;;;5052153;28;20112;-73
2023/04/22 06:23:58;;;;;;;26.10;14.35;;;9.60;99.90;;;;;;5052165;28;20063;-73
2023/04/22 06:26:25;;;;;;;25.45;14.73;;;9.60;99.90;;;;;;5051860;28;20025;-73
2023/04/22 06:28:51;;;;;;;24.80;13.50;;;9.70;99.90;;;;;;5052034;28;20465;-73
2023/04/22 06:31:17;;;;;;;21.88;13.75;;;9.70;99.90;;;;;;5051668;28;20051;-74
2023/04/22 06:33:43;;;;;;;24.95;13.98;;;9.70;99.90;;;;;;5051939;28;20473;-74
2023/04/22 06:36:08;;;;;;;24.08;13.25;;;9.60;99.90;;;;;;5051442;28;20021;-73
2023/04/22 06:38:34;;;;;;;22.75;13.38;;;9.60;99.90;;;;;;5051629;28;20028;-73
2023/04/22 06:41:00;;;;;;;22.65;12.85;;;9.60;99.90;;;;;;5051643;28;20085;-73
2023/04/22 06:43:25;;;;;;;24.13;13.18;;;9.60;99.90;;;;;;5051811;28;20024;-73
2023/04/22 06:45:51;;;;;;;21.63;12.02;;;9.60;99.90;;;;;;5051723;28;20454;-73
2023/04/22 06:48:17;;;;;;;23.27;11.63;;;9.60;99.90;;;;;;5051690;28;20326;-74
2023/04/22 06:50:42;;;;;;;19.90;10.98;;;9.60;99.90;;;;;;5051944;28;20036;-74
2023/04/22 06:53:08;;;;;;;18.70;10.40;;;9.50;99.90;;;;;;5051916;28;20037;-74
2023/04/22 06:55:35;;;;;;;18.08;10.30;;;9.50;99.90;;;;;;5052261;28;20029;-74
2023/04/22 06:58:00;;;;;;;17.38;10.55;;;9.60;99.90;;;;;;5052512;28;20017;-74
2023/04/22 07:00:27;;;;;;;18.52;10.43;;;9.70;99.90;;;;;;5051976;28;20472;-74
2023/04/22 07:02:53;;;;;;;21.05;11.02;;;9.70;99.90;;;;;;5051696;28;20028;-74
2023/04/22 07:05:18;;;;;;;21.73;11.07;;;9.90;99.90;;;;;;5050666;28;20112;-73
2023/04/22 07:07:45;;;;;;;23.58;11.05;;;9.90;99.90;;;;;;5051791;28;20487;-73
2023/04/22 07:10:13;;;;;;;17.52;10.95;;;10.00;99.90;;;;;;5051041;28;20017;-74
2023/04/22 07:12:39;;;;;;;19.50;10.93;;;10.10;99.90;;;;;;5051219;28;20027;-74
2023/04/22 07:15:05;;;;;;;19.35;10.57;;;10.10;99.90;;;;;;5050798;28;20024;-74
2023/04/22 07:17:31;;;;;;;16.02;10.65;;;10.10;99.90;;;;;;5050070;28;20403;-73
2023/04/22 07:19:57;;;;;;;18.38;10.63;;;10.10;99.90;;;;;;5051122;28;20040;-73
2023/04/22 07:22:22;;;;;;;16.20;9.98;;;10.20;99.90;;;;;;5050463;28;20944;-73
2023/04/22 07:24:48;;;;;;;16.88;10.57;;;10.10;99.90;;;;;;5051025;28;20032;-72
2023/04/22 07:27:14;;;;;;;16.98;10.10;;;10.00;99.90;;;;;;5050435;28;20025;-74
2023/04/22 07:29:40;;;;;;;15.02;10.00;;;10.00;99.90;;;;;;5050852;28;20025;-74
2023/04/22 07:32:06;;;;;;;18.35;9.85;;;10.00;99.90;;;;;;5050043;28;20246;-73
2023/04/22 07:34:31;;;;;;;15.23;8.35;;;10.00;99.90;;;;;;5050698;28;20025;-72
2023/04/22 07:36:57;;;;;;;9.00;5.90;;;9.90;99.90;;;;;;5050517;28;20029;-74
2023/04/22 07:39:23;;;;;;;8.35;5.55;;;9.80;99.90;;;;;;5050775;28;20021;-74
2023/04/22 07:41:50;;;;;;;8.35;5.25;;;9.70;99.90;;;;;;5050847;28;20025;-74
2023/04/22 07:44:20;;;;;;;10.15;4.93;;;9.80;99.90;;;;;;5050190;28;20096;-74
2023/04/22 07:46:46;;;;;;;10.35;5.63;;;9.70;99.90;;;;;;5050937;28;20412;-74
2023/04/22 07:49:12;;;;;;;11.95;5.00;;;9.60;99.90;;;;;;5050533;28;20024;-74
2023/04/22 07:51:39;;;;;;;10.18;4.68;;;9.70;99.90;;;;;;5050727;28;20025;-74
2023/04/22 07:54:05;;;;;;;8.65;5.10;;;9.60;99.90;;;;;;5050533;28;20032;-78
2023/04/22 07:56:31;;;;;;;6.90;3.75;;;9.60;99.90;;;;;;5050831;28;20021;-73
2023/04/22 07:58:57;;;;;;;7.25;3.80;;;9.50;99.90;;;;;;5051083;28;20109;-73
2023/04/22 08:01:23;;;;;;;6.80;3.78;;;9.50;99.90;;;;;;5050290;28;20028;-74
2023/04/22 08:03:48;;;;;;;5.32;3.63;;;9.50;99.90;;;;;;5050587;28;20414;-73
2023/04/22 08:06:14;;;;;;;7.63;3.50;;;9.50;99.90;;;;;;5050041;28;20047;-73
2023/04/22 08:08:40;;;;;;;6.25;3.40;;;9.50;99.90;;;;;;5050351;28;20032;-72
2023/04/22 08:11:06;;;;;;;9.18;3.95;;;9.50;99.90;;;;;;5050291;28;20060;-73
2023/04/22 08:13:32;;;;;;;6.35;3.13;;;9.50;99.90;;;;;;5050822;28;20458;-73
2023/04/22 08:15:59;;;;;;;7.75;4.18;;;9.50;99.90;;;;;;5050201;28;20029;-72
2023/04/22 08:18:25;;;;;;;8.10;4.45;;;9.50;99.90;;;;;;5049963;28;20083;-74
2023/04/22 08:20:51;;;;;;;6.65;4.43;;;9.50;99.90;;;;;;5050586;28;20102;-73
2023/04/22 08:23:16;;;;;;;8.80;4.90;;;9.60;99.90;;;;;;5049898;28;20048;-73
2023/04/22 08:25:42;;;;;;;10.55;4.85;;;9.60;99.90;;;;;;5050070;28;20412;-73
2023/04/22 08:28:08;;;;;;;12.50;5.82;;;9.60;99.90;;;;;;5050007;28;20400;-76
2023/04/22 08:30:33;;;;;;;12.85;5.85;;;9.50;99.90;;;;;;5050315;28;20021;-74
2023/04/22 08:32:59;;;;;;;12.98;5.75;;;9.50;99.90;;;;;;5048942;28;20048;-74
2023/04/22 08:35:25;;;;;;;11.13;6.43;;;9.50;99.90;;;;;;5049861;28;20029;-74
2023/04/22 08:37:51;;;;;;;9.95;6.15;;;9.50;99.90;;;;;;5050357;28;20021;-74
2023/04/22 08:40:17;;;;;;;12.60;6.25;;;9.50;99.90;;;;;;5050135;28;20029;-74
2023/04/22 08:42:43;;;;;;;18.40;6.28;;;9.40;99.90;;;;;;5050499;28;20029;-74
2023/04/22 08:45:09;;;;;;;13.82;5.47;;;9.40;99.90;;;;;;5053396;28;20103;-78
2023/04/22 08:47:37;;;;;;;11.18;5.88;;;9.50;99.90;;;;;;5054026;28;20028;-73
2023/04/22 08:50:05;;;;;;;9.10;5.40;;;9.50;99.90;;;;;;5054078;28;20480;-73
2023/04/22 08:52:31;;;;;;;12.93;5.53;;;9.50;99.90;;;;;;5053522;28;20036;-73
2023/04/22 08:54:57;;;;;;;9.52;5.38;;;9.50;99.90;;;;;;5053884;28;20116;-74
2023/04/22 08:57:24;;;;;;;9.40;5.05;;;9.60;99.90;;;;;;5053168;28;20032;-74
2023/04/22 08:59:50;;;;;;;7.57;5.13;;;9.60;99.90;;;;;;5053566;28;20024;-73
2023/04/22 09:02:19;;;;;;;10.05;5.85;;;9.60;99.90;;;;;;5051995;28;20047;-74
2023/04/22 09:04:46;;;;;;;12.38;5.55;;;9.60;99.90;;;;;;5053576;28;20463;-74
2023/04/22 09:07:21;;;;;;;13.57;5.78;;;9.60;99.90;;;;;;5053086;28;20445;-75
2023/04/22 09:09:47;;;;;;;8.98;5.18;;;9.60;99.90;;;;;;5053548;28;20032;-74
2023/04/22 09:12:13;;;;;;;8.77;5.22;;;9.50;99.90;;;;;;5053026;28;20458;-75
2023/04/22 09:14:38;;;;;;;9.55;6.07;;;9.60;99.90;;;;;;5053490;28;20106;-74
2023/04/22 09:17:04;;;;;;;8.07;5.18;;;9.60;99.90;;;;;;5053246;28;20025;-73
2023/04/22 09:19:30;;;;;;;10.45;5.82;;;9.60;99.90;;;;;;5051507;28;20086;-74
2023/04/22 09:21:59;;;;;;;9.73;5.03;;;9.60;99.90;;;;;;5053797;28;20430;-75
2023/04/22 09:24:25;;;;;;;10.68;5.43;;;9.50;99.90;;;;;;5052484;28;20098;-74
2023/04/22 09:26:50;;;;;;;9.93;4.97;;;9.50;99.90;;;;;;5053103;28;20028;-74
2023/04/22 09:29:16;;;;;;;7.72;5.45;;;9.50;99.90;;;;;;5052865;28;20025;-74
2023/04/22 09:31:48;;;;;;;7.88;5.50;;;9.60;99.90;;;;;;5053164;28;20021;-74
2023/04/22 09:34:14;;;;;;;7.30;5.28;;;9.60;99.90;;;;;;5052437;28;20120;-76
2023/04/22 09:36:42;;;;;;;8.38;6.10;;;9.70;99.90;;;;;;5052934;28;20088;-77
2023/04/22 09:39:08;;;;;;;11.88;6.05;;;9.70;99.90;;;;;;5052769;28;20017;-76
2023/04/22 09:41:39;;;;;;;11.13;5.60;;;9.70;99.90;;;;;;5052520;28;20052;-77
2023/04/22 09:44:16;;;;;;;9.40;5.50;;;9.70;99.90;;;;;;5052789;28;20071;-76
2023/04/22 09:46:43;;;;;;;10.15;5.65;;;9.70;99.90;;;;;;5052766;28;20025;-75
2023/04/22 09:49:09;;;;;;;9.95;5.45;;;9.70;99.90;;;;;;5052466;28;20120;-76
2023/04/22 09:51:39;;;;;;;15.27;6.28;;;9.70;99.90;;;;;;5051863;28;20023;-75
2023/04/22 09:54:10;;;;;;;12.88;5.90;;;9.60;99.90;;;;;;5052200;28;20048;-74
2023/04/22 09:56:49;;;;;;;11.40;5.78;;;9.70;99.90;;;;;;5051694;28;20434;-75
2023/04/22 09:59:20;;;;;;;8.13;5.07;;;9.50;99.90;;;;;;5052196;28;20087;-74
2023/04/22 10:01:46;;;;;;;10.07;5.43;;;9.50;99.90;;;;;;5052353;28;20067;-75
2023/04/22 10:04:13;;;;;;;8.70;5.15;;;9.40;99.90;;;;;;5051734;28;20057;-75
2023/04/22 10:06:40;;;;;;;9.63;5.47;;;9.50;99.90;;;;;;5051956;28;20096;-74
2023/04/22 10:09:06;;;;;;;8.65;6.03;;;9.60;99.90;;;;;;5052235;28;20082;-74
2023/04/22 10:11:33;;;;;;;8.27;4.63;;;9.60;99.90;;;;;;5051739;28;20066;-73
2023/04/22 10:14:02;;;;;;;8.35;4.70;;;9.60;99.90;;;;;;5051805;28;20025;-74
2023/04/22 10:16:31;;;;;;;11.50;5.28;;;9.70;99.90;;;;;;5051402;28;20036;-74
2023/04/22 10:18:59;;;;;;;6.40;4.70;;;9.70;99.90;;;;;;5051988;28;20365;-74
2023/04/22 10:21:28;;;;;;;9.40;4.78;;;9.70;99.90;;;;;;5051710;28;20020;-74
2023/04/22 10:23:54;;;;;;;7.88;5.35;;;9.70;99.90;;;;;;5051955;28;20102;-75
2023/04/22 10:26:42;;;;;;;8.15;5.50;;;9.70;99.90;;;;;;5051622;28;20120;-75
2023/04/22 10:29:15;;;;;;;11.18;6.40;;;9.80;99.90;;;;;;5051840;28;20028;-74
2023/04/22 10:31:41;;;;;;;9.63;6.30;;;9.70;99.90;;;;;;5051971;28;20028;-73
2023/04/22 10:34:14;;;;;;;11.65;5.82;;;9.70;99.90;;;;;;5052216;28;20051;-74
2023/04/22 10:37:20;;;;;;;9.93;5.90;;;9.80;99.90;;;;;;5051261;28;20116;-74
2023/04/22 10:40:06;;;;;;;8.10;5.65;;;9.70;99.90;;;;;;5029195;28;20033;-74
2023/04/22 10:42:32;;;;;;;8.15;5.55;;;9.60;99.90;;;;;;5050496;28;20073;-74
2023/04/22 10:45:03;;;;;;;6.75;5.78;;;9.50;99.90;;;;;;5051528;28;20138;-74
2023/04/22 10:47:36;;;;;;;10.30;6.63;;;9.30;99.90;;;;;;5051218;28;20035;-74
2023/04/22 10:50:18;;;;;;;11.27;7.22;;;9.30;99.90;;;;;;5051797;28;20025;-74
2023/04/22 10:52:53;;;;;;;9.25;6.85;;;9.10;99.90;;;;;;5050516;28;20425;-74
2023/04/22 10:55:20;;;;;;;9.85;7.45;;;9.10;99.90;;;;;;5051272;28;20477;-74
2023/04/22 10:57:47;;;;;;;8.45;7.07;;;9.00;99.90;;;;;;5051331;28;20029;-74
2023/04/22 11:00:19;;;;;;;10.02;8.05;;;9.00;99.90;;;;;;5051472;28;20021;-74
2023/04/22 11:02:50;;;;;;;11.60;7.90;;;9.00;99.90;;;;;;5051614;28;20065;-74
2023/04/22 11:05:25;;;;;;;10.32;8.25;;;8.90;99.90;;;;;;5051204;28;20031;-74
2023/04/22 11:07:53;;;;;;;11.32;8.68;;;9.00;99.90;;;;;;5051084;28;20057;-74
2023/04/22 11:10:31;;;;;;;12.25;8.70;;;9.00;99.90;;;;;;5050481;28;20108;-75
2023/04/22 11:12:57;;;;;;;12.55;10.00;;;9.00;99.90;;;;;;5051138;28;20398;-74
2023/04/22 11:15:23;;;;;;;11.63;9.65;;;9.00;99.90;;;;;;5050400;28;20029;-74
2023/04/22 11:17:53;;;;;;;10.63;9.18;;;9.00;99.90;;;;;;5050694;28;20029;-75
2023/04/22 11:20:20;;;;;;;11.73;9.85;;;9.00;99.90;;;;;;5050738;28;20488;-73
2023/04/22 11:22:52;;;;;;;12.43;9.57;;;8.90;99.90;;;;;;5050556;28;20505;-74
2023/04/22 11:25:20;;;;;;;10.52;8.40;;;8.90;99.90;;;;;;5050392;28;20041;-76
2023/04/22 11:27:46;;;;;;;12.13;8.52;;;8.80;99.90;;;;;;5051067;28;20029;-75
2023/04/22 11:30:15;;;;;;;9.13;7.13;;;8.80;99.90;;;;;;5051317;28;20086;-75
2023/04/22 11:32:55;;;;;;;9.98;7.80;;;8.70;99.90;;;;;;5050879;28;20446;-75
2023/04/22 11:35:23;;;;;;;10.50;7.75;;;8.70;99.90;;;;;;5050709;28;20091;-75
2023/04/22 11:37:51;;;;;;;10.30;8.20;;;8.60;99.90;;;;;;5050897;28;20024;-74
2023/04/22 11:40:26;;;;;;;11.07;8.90;;;8.70;99.90;;;;;;5051163;28;20025;-74
2023/04/22 11:42:53;;;;;;;14.30;9.95;;;8.80;99.90;;;;;;5051023;28;20318;-74
2023/04/22 11:45:19;;;;;;;14.27;9.93;;;8.80;99.90;;;;;;5050673;28;20057;-74
2023/04/22 11:47:45;;;;;;;13.57;9.23;;;8.80;99.90;;;;;;5050647;28;20021;-74
2023/04/22 11:50:12;;;;;;;13.10;9.50;;;8.80;99.90;;;;;;5050556;28;20100;-76
2023/04/22 11:52:56;;;;;;;10.68;8.32;;;8.90;99.90;;;;;;5049922;28;20025;-76
2023/04/22 11:55:31;;;;;;;12.20;8.27;;;8.90;99.90;;;;;;5049886;28;20032;-78
2023/04/22 11:58:19;;;;;;;11.75;8.45;;;9.00;99.90;;;;;;5050659;28;20021;-75
2023/04/22 12:00:47;;;;;;;9.40;7.97;;;9.00;99.90;;;;;;5049883;28;20021;-75
2023/04/22 12:03:18;;;;;;;11.05;8.95;;;9.00;99.90;;;;;;5050626;28;20029;-75
2023/04/22 12:05:57;;;;;;;13.75;9.95;;;9.00;99.90;;;;;;5049905;28;20033;-76
2023/04/22 12:08:25;;;;;;;14.88;9.63;;;9.10;99.90;;;;;;5049936;28;20017;-76
2023/04/22 12:10:55;;;;;;;14.52;10.43;;;9.10;99.90;;;;;;5050145;28;20057;-76
2023/04/22 12:13:43;;;;;;;10.90;8.48;;;9.20;99.90;;;;;;5050468;28;20074;-76
2023/04/22 12:16:18;;;;;;;14.50;9.18;;;9.20;99.90;;;;;;5050393;28;20018;-76
2023/04/22 12:18:51;;;;;;;15.25;10.52;;;9.30;99.90;;;;;;5053551;28;20032;-77
2023/04/22 12:21:20;;;;;;;11.77;7.85;;;9.40;99.90;;;;;;5054310;28;20104;-76
2023/04/22 12:23:53;;;;;;;11.52;8.30;;;9.50;99.90;;;;;;5053733;28;20094;-76
2023/04/22 12:26:21;;;;;;;11.65;8.00;;;9.40;99.90;;;;;;5054358;28;20033;-77
2023/04/22 12:28:48;;;;;;;9.25;7.80;;;9.40;99.90;;;;;;5054430;28;20143;-76
2023/04/22 12:31:14;;;;;;;8.25;7.07;;;9.40;99.90;;;;;;5054290;28;20024;-77
2023/04/22 12:33:40;;;;;;;9.18;6.82;;;9.40;99.90;;;;;;5053685;28;20021;-77
2023/04/22 12:36:06;;;;;;;11.38;8.52;;;9.50;99.90;;;;;;5054213;28;20028;-76
2023/04/22 12:38:33;;;;;;;13.25;7.20;;;9.50;99.90;;;;;;5053431;28;20013;-77
2023/04/22 12:40:59;;;;;;;10.93;7.45;;;9.50;99.90;;;;;;5053962;28;20180;-76